createdAt,value
2019-01-14T00:01:09.913Z,99592.16
2019-01-14T00:03:41.734Z,99594.22
2019-01-14T00:06:13.855Z,99601.76
2019-01-14T00:08:43.408Z,99606.19
2019-01-14T00:11:13.447Z,99608.17
2019-01-14T00:13:43.500Z,99597.72
2019-01-14T00:16:13.160Z,99595.60
2019-01-14T00:18:42.900Z,99594.90
2019-01-14T00:21:12.568Z,99608.27
2019-01-14T00:23:42.121Z,99604.44
2019-01-14T00:26:11.673Z,99608.34
2019-01-14T00:28:41.475Z,99610.19
2019-01-14T00:31:11.014Z,99617.19
2019-01-14T00:33:40.531Z,99616.88
2019-01-14T00:36:17.246Z,99625.13
2019-01-14T00:38:44.651Z,99636.50
2019-01-14T00:41:14.178Z,99634.70
2019-01-14T00:43:43.711Z,99648.02
2019-01-14T00:46:13.255Z,99650.73
2019-01-14T00:48:46.885Z,99653.33
2019-01-14T00:51:16.419Z,99664.88
2019-01-14T00:53:45.982Z,99668.48
2019-01-14T00:56:17.471Z,99671.17
2019-01-14T00:58:47.535Z,99679.80
2019-01-14T01:01:17.023Z,99682.09
2019-01-14T01:03:46.573Z,99684.34
2019-01-14T01:06:16.341Z,99685.95
2019-01-14T01:08:45.966Z,99687.79
2019-01-14T01:11:15.503Z,99688.73
2019-01-14T01:13:45.029Z,99687.31
2019-01-14T01:16:14.591Z,99695.94
2019-01-14T01:18:44.222Z,99700.06
2019-01-14T01:21:13.727Z,99700.42
2019-01-14T01:23:43.327Z,99711.47
2019-01-14T01:26:12.854Z,99720.59
2019-01-14T01:28:42.404Z,99727.62
2019-01-14T01:31:11.924Z,99734.95
2019-01-14T01:36:40.888Z,99746.20
2019-01-14T01:39:10.426Z,99744.83
2019-01-14T01:41:39.975Z,99757.94
2019-01-14T01:44:09.525Z,99762.34
2019-01-14T01:46:40.169Z,99763.07
2019-01-14T01:49:09.688Z,99769.09
2019-01-14T01:51:39.236Z,99783.82
2019-01-14T01:54:08.771Z,99793.67
2019-01-14T01:56:38.331Z,99795.94
2019-01-14T01:59:07.858Z,99795.30
2019-01-14T02:01:37.369Z,99804.86
2019-01-14T02:04:07.088Z,99804.37
2019-01-14T02:06:39.256Z,99816.41
2019-01-14T02:09:09.312Z,99822.44
2019-01-14T02:11:38.836Z,99837.34
2019-01-14T02:14:08.819Z,99839.41
2019-01-14T02:16:38.927Z,99851.56
2019-01-14T02:19:08.442Z,99852.50
2019-01-14T02:21:37.985Z,99849.66
2019-01-14T02:24:07.545Z,99843.27
2019-01-14T02:26:38.113Z,99841.31
2019-01-14T02:29:07.620Z,99855.50
2019-01-14T02:31:37.151Z,99858.25
2019-01-14T02:34:06.670Z,99858.41
2019-01-14T02:36:36.241Z,99862.06
2019-01-14T02:39:07.453Z,99869.39
2019-01-14T02:41:37.231Z,99870.41
2019-01-14T02:44:06.763Z,99875.47
2019-01-14T02:46:39.405Z,99881.23
2019-01-14T02:49:08.860Z,99884.02
2019-01-14T02:51:39.436Z,99899.22
2019-01-14T02:54:09.011Z,99898.03
2019-01-14T02:56:38.534Z,99901.97
2019-01-14T02:59:08.057Z,99897.52
2019-01-14T03:01:37.611Z,99900.95
2019-01-14T03:04:07.403Z,99906.94
2019-01-14T03:06:38.471Z,99902.58
2019-01-14T03:09:09.223Z,99908.17
2019-01-14T03:11:38.750Z,99906.75
2019-01-14T03:14:08.286Z,99910.97
2019-01-14T03:16:37.821Z,99914.38
2019-01-14T03:19:07.376Z,99911.79
2019-01-14T03:21:36.906Z,99918.16
2019-01-14T03:24:06.458Z,99919.31
2019-01-14T03:26:37.110Z,99921.77
2019-01-14T03:29:06.899Z,99921.09
2019-01-14T03:31:36.688Z,99916.06
2019-01-14T03:34:06.245Z,99914.00
2019-01-14T03:36:35.832Z,99911.25
2019-01-14T03:39:07.447Z,99915.83
2019-01-14T03:41:37.109Z,99907.65
2019-01-14T03:44:06.691Z,99917.91
2019-01-14T03:46:37.341Z,99915.42
2019-01-14T03:49:06.869Z,99926.01
2019-01-14T03:51:36.404Z,99931.31
2019-01-14T03:54:07.778Z,99941.61
2019-01-14T03:56:37.238Z,99947.16
2019-01-14T03:59:06.883Z,99955.87
2019-01-14T04:01:36.424Z,99961.45
2019-01-14T04:04:06.008Z,99964.48
2019-01-14T04:06:35.556Z,99963.73
2019-01-14T04:09:07.149Z,99961.47
2019-01-14T04:11:36.751Z,99968.99
2019-01-14T04:14:06.533Z,99975.48
2019-01-14T04:16:36.100Z,99979.22
2019-01-14T04:19:05.792Z,99969.65
2019-01-14T04:21:35.515Z,99966.02
2019-01-14T04:24:05.043Z,99970.31
2019-01-14T04:26:36.247Z,99978.66
2019-01-14T04:29:05.859Z,99980.82
2019-01-14T04:31:35.429Z,99985.04
2019-01-14T04:34:05.421Z,99983.72
2019-01-14T04:36:34.979Z,99990.53
2019-01-14T04:39:07.338Z,99993.20
2019-01-14T04:41:36.850Z,99992.46
2019-01-14T04:44:06.407Z,99989.58
2019-01-14T04:46:35.979Z,99985.09
2019-01-14T04:49:05.540Z,100002.61
2019-01-14T04:51:35.098Z,100003.46
2019-01-14T04:54:04.606Z,100008.76
2019-01-14T04:56:34.159Z,100000.35
2019-01-14T04:59:03.704Z,99994.61
2019-01-14T05:01:33.232Z,99997.86
2019-01-14T05:04:03.087Z,99999.91
2019-01-14T05:06:32.687Z,100004.02
2019-01-14T05:09:02.203Z,100009.13
2019-01-14T05:11:31.732Z,100015.38
2019-01-14T05:14:01.244Z,100011.38
2019-01-14T05:16:30.779Z,100010.41
2019-01-14T05:19:00.319Z,100015.48
2019-01-14T05:21:29.859Z,100016.37
2019-01-14T05:23:59.396Z,100017.45
2019-01-14T05:26:29.194Z,100016.97
2019-01-14T05:28:58.738Z,100024.27
2019-01-14T05:31:28.294Z,100030.64
2019-01-14T05:33:57.844Z,100035.69
2019-01-14T05:36:27.440Z,100041.20
2019-01-14T05:38:57.031Z,100045.65
2019-01-14T05:41:26.562Z,100047.69
2019-01-14T05:43:56.083Z,100050.94
2019-01-14T05:46:25.647Z,100055.23
2019-01-14T05:48:55.196Z,100068.47
2019-01-14T05:51:24.744Z,100060.24
2019-01-14T05:53:54.313Z,100066.24
2019-01-14T05:56:23.863Z,100079.77
2019-01-14T05:58:53.667Z,100084.32
2019-01-14T06:01:25.007Z,100084.21
2019-01-14T06:03:54.558Z,100084.54
2019-01-14T06:06:24.088Z,100095.42
2019-01-14T06:08:53.644Z,100099.44
2019-01-14T06:11:23.183Z,100100.84
2019-01-14T06:13:52.759Z,100100.33
2019-01-14T06:16:22.292Z,100103.55
2019-01-14T06:18:51.816Z,100103.06
2019-01-14T06:21:21.371Z,100111.77
2019-01-14T06:23:50.889Z,100111.16
2019-01-14T06:26:20.440Z,100111.37
2019-01-14T06:28:49.970Z,100119.11
2019-01-14T06:31:19.517Z,100118.51
2019-01-14T06:33:49.115Z,100121.30
2019-01-14T06:36:18.671Z,100125.86
2019-01-14T06:38:48.237Z,100127.95
2019-01-14T06:41:17.770Z,100134.19
2019-01-14T06:43:47.310Z,100135.77
2019-01-14T06:46:16.853Z,100143.47
2019-01-14T06:48:46.382Z,100155.30
2019-01-14T06:51:15.914Z,100151.31
2019-01-14T06:53:45.480Z,100152.27
2019-01-14T06:56:15.007Z,100160.39
2019-01-14T06:58:44.561Z,100175.94
2019-01-14T07:01:14.083Z,100172.45
2019-01-14T07:03:43.637Z,100174.84
2019-01-14T07:06:13.162Z,100183.85
2019-01-14T07:08:42.720Z,100186.92
2019-01-14T07:11:13.087Z,100185.21
2019-01-14T07:13:42.896Z,100188.07
2019-01-14T07:16:12.467Z,100191.00
2019-01-14T07:18:41.995Z,100195.44
2019-01-14T07:21:11.968Z,100201.47
2019-01-14T07:23:41.530Z,100209.14
2019-01-14T07:26:11.370Z,100224.41
2019-01-14T07:28:41.164Z,100236.97
2019-01-14T07:31:11.095Z,100250.14
2019-01-14T07:33:41.030Z,100239.91
2019-01-14T07:36:10.550Z,100240.82
2019-01-14T07:38:40.514Z,100256.83
2019-01-14T07:41:10.581Z,100237.63
2019-01-14T07:43:40.179Z,100256.82
2019-01-14T07:46:11.739Z,100264.15
2019-01-14T07:48:41.470Z,100269.74
2019-01-14T07:51:11.544Z,100267.72
2019-01-14T07:53:41.528Z,100275.95
2019-01-14T07:56:11.736Z,100274.69
2019-01-14T07:58:42.464Z,100285.90
2019-01-14T08:01:12.421Z,100290.90
2019-01-14T08:03:42.327Z,100299.11
2019-01-14T08:06:12.182Z,100305.41
2019-01-14T08:08:41.775Z,100302.73
2019-01-14T08:11:12.061Z,100317.65
2019-01-14T08:13:42.229Z,100325.56
2019-01-14T08:16:11.732Z,100322.39
2019-01-14T08:18:43.282Z,100318.00
2019-01-14T08:21:13.437Z,100323.23
2019-01-14T08:23:43.019Z,100320.23
2019-01-14T08:26:14.202Z,100329.36
2019-01-14T08:28:44.152Z,100332.91
2019-01-14T08:31:13.954Z,100339.05
2019-01-14T08:33:44.046Z,100338.17
2019-01-14T08:36:15.100Z,100341.56
2019-01-14T08:38:44.625Z,100345.06
2019-01-14T08:41:15.417Z,100351.91
2019-01-14T08:43:46.645Z,100353.77
2019-01-14T08:46:16.215Z,100363.20
2019-01-14T08:48:48.897Z,100367.06
2019-01-14T08:51:17.591Z,100376.64
2019-01-14T08:53:47.106Z,100372.08
2019-01-14T08:56:16.629Z,100386.03
2019-01-14T08:58:46.582Z,100394.19
2019-01-14T09:01:16.200Z,100403.71
2019-01-14T09:03:46.258Z,100400.24
2019-01-14T09:06:16.168Z,100406.20
2019-01-14T09:08:45.718Z,100402.83
2019-01-14T09:11:17.122Z,100414.27
2019-01-14T09:13:47.182Z,100424.03
2019-01-14T09:16:16.771Z,100422.17
2019-01-14T09:18:46.873Z,100422.84
2019-01-14T09:21:16.544Z,100427.20
2019-01-14T09:23:46.539Z,100427.20
2019-01-14T09:26:16.116Z,100432.23
2019-01-14T09:28:47.198Z,100430.33
2019-01-14T09:31:20.482Z,100433.14
2019-01-14T09:33:50.347Z,100440.39
2019-01-14T09:36:20.374Z,100443.16
2019-01-14T09:38:50.388Z,100439.34
2019-01-14T09:41:20.751Z,100436.96
2019-01-14T09:43:50.334Z,100446.23
2019-01-14T09:46:19.875Z,100460.72
2019-01-14T09:48:49.446Z,100461.50
2019-01-14T09:51:20.433Z,100472.66
2019-01-14T09:53:50.358Z,100468.91
2019-01-14T09:56:19.878Z,100466.45
2019-01-14T09:58:52.210Z,100462.50
2019-01-14T10:01:21.738Z,100469.83
2019-01-14T10:03:51.312Z,100469.83
2019-01-14T10:06:20.851Z,100477.96
2019-01-14T10:08:50.467Z,100486.17
2019-01-14T10:11:21.004Z,100483.70
2019-01-14T10:13:50.550Z,100499.08
2019-01-14T10:16:20.177Z,100490.09
2019-01-14T10:18:49.718Z,100506.29
2019-01-14T10:21:20.484Z,100508.37
2019-01-14T10:23:51.577Z,100494.02
2019-01-14T10:26:21.098Z,100500.03
2019-01-14T10:28:50.729Z,100500.88
2019-01-14T10:31:20.258Z,100500.47
2019-01-14T10:33:49.859Z,100503.42
2019-01-14T10:36:20.978Z,100504.55
2019-01-14T10:38:50.740Z,100494.03
2019-01-14T10:41:20.350Z,100498.38
2019-01-14T10:43:49.962Z,100494.18
2019-01-14T10:46:19.471Z,100495.47
2019-01-14T10:48:49.022Z,100492.91
2019-01-14T10:51:19.301Z,100497.20
2019-01-14T10:53:48.809Z,100511.73
2019-01-14T10:56:18.322Z,100511.95
2019-01-14T10:58:48.981Z,100513.27
2019-01-14T11:01:18.547Z,100516.85
2019-01-14T11:03:50.882Z,100521.67
2019-01-14T11:06:21.435Z,100528.51
2019-01-14T11:08:57.564Z,100528.81
2019-01-14T11:11:22.722Z,100530.03
2019-01-14T11:13:58.395Z,100530.47
2019-01-14T11:16:25.363Z,100530.73
2019-01-14T11:18:54.918Z,100525.42
2019-01-14T11:21:24.463Z,100522.55
2019-01-14T11:23:53.994Z,100531.25
2019-01-14T11:26:25.512Z,100530.94
2019-01-14T11:28:55.254Z,100541.33
2019-01-14T11:31:26.717Z,100541.66
2019-01-14T11:33:56.622Z,100543.27
2019-01-14T11:36:26.205Z,100551.33
2019-01-14T11:38:55.993Z,100549.09
2019-01-14T11:41:25.627Z,100552.59
2019-01-14T11:43:55.164Z,100555.21
2019-01-14T11:46:25.449Z,100556.01
2019-01-14T11:48:55.271Z,100554.20
2019-01-14T11:51:24.854Z,100562.97
2019-01-14T11:53:54.370Z,100556.91
2019-01-14T11:56:23.931Z,100569.06
2019-01-14T11:58:53.468Z,100556.13
2019-01-14T12:01:22.999Z,100573.11
2019-01-14T12:03:52.535Z,100573.97
2019-01-14T12:06:22.412Z,100566.42
2019-01-14T12:08:51.967Z,100565.91
2019-01-14T12:11:22.043Z,100565.36
2019-01-14T12:13:51.851Z,100569.02
2019-01-14T12:16:21.437Z,100575.78
2019-01-14T12:18:51.229Z,100583.39
2019-01-14T12:21:20.925Z,100587.56
2019-01-14T12:23:50.508Z,100595.41
2019-01-14T12:26:20.171Z,100600.59
2019-01-14T12:28:49.872Z,100602.17
2019-01-14T12:31:19.447Z,100615.72
2019-01-14T12:33:49.009Z,100606.80
2019-01-14T12:36:18.561Z,100612.97
2019-01-14T12:38:48.102Z,100610.39
2019-01-14T12:41:17.631Z,100606.05
2019-01-14T12:43:47.197Z,100605.22
2019-01-14T12:46:16.730Z,100607.13
2019-01-14T12:48:46.273Z,100610.37
2019-01-14T12:51:18.071Z,100606.86
2019-01-14T12:53:49.939Z,100601.31
2019-01-14T12:56:21.030Z,100599.03
2019-01-14T12:58:50.861Z,100605.44
2019-01-14T13:01:21.843Z,100605.77
2019-01-14T13:03:51.919Z,100617.45
2019-01-14T13:06:21.497Z,100617.09
2019-01-14T13:08:51.047Z,100623.44
2019-01-14T13:11:23.400Z,100607.58
2019-01-14T13:13:54.046Z,100611.39
2019-01-14T13:16:23.593Z,100599.66
2019-01-14T13:18:53.148Z,100600.31
2019-01-14T13:21:22.682Z,100599.73
2019-01-14T13:23:53.681Z,100604.58
2019-01-14T13:26:23.228Z,100603.00
2019-01-14T13:28:52.793Z,100610.18
2019-01-14T13:31:22.346Z,100613.99
2019-01-14T13:33:51.912Z,100616.02
2019-01-14T13:36:21.506Z,100620.19
2019-01-14T13:38:51.066Z,100620.52
2019-01-14T13:41:20.602Z,100626.98
2019-01-14T13:43:50.167Z,100628.30
2019-01-14T13:46:26.097Z,100630.11
2019-01-14T13:48:51.288Z,100642.19
2019-01-14T13:51:22.644Z,100647.89
2019-01-14T13:53:52.202Z,100640.91
2019-01-14T13:56:21.751Z,100644.72
2019-01-14T13:58:51.273Z,100653.02
2019-01-14T14:01:20.815Z,100656.70
2019-01-14T14:03:50.412Z,100659.58
2019-01-14T14:06:19.944Z,100661.81
2019-01-14T14:08:49.521Z,100693.02
2019-01-14T14:11:19.023Z,100720.81
2019-01-14T14:13:48.598Z,100720.00
2019-01-14T14:16:18.213Z,100743.61
2019-01-14T14:18:48.459Z,100745.81
2019-01-14T14:21:18.329Z,100756.30
2019-01-14T14:23:49.161Z,100765.86
2019-01-14T14:26:18.683Z,100765.52
2019-01-14T14:28:54.196Z,100769.22
2019-01-14T14:31:23.770Z,100763.00
2019-01-14T14:33:53.313Z,100767.25
2019-01-14T14:36:22.855Z,100767.25
2019-01-14T14:38:52.420Z,100768.08
2019-01-14T14:41:21.963Z,100781.28
2019-01-14T14:43:51.521Z,100773.77
2019-01-14T14:46:21.081Z,100775.02
2019-01-14T14:48:50.627Z,100770.52
2019-01-14T14:51:20.169Z,100778.16
2019-01-14T14:53:49.795Z,100773.65
2019-01-14T14:56:19.290Z,100790.83
2019-01-14T14:58:48.875Z,100782.48
2019-01-14T15:01:18.409Z,100780.23
2019-01-14T15:03:48.869Z,100787.88
2019-01-14T15:06:18.479Z,100791.81
2019-01-14T15:08:49.261Z,100787.70
2019-01-14T15:11:18.808Z,100786.80
2019-01-14T15:13:48.354Z,100794.06
2019-01-14T15:16:17.907Z,100800.42
2019-01-14T15:18:47.435Z,100808.61
2019-01-14T15:21:16.999Z,100808.52
2019-01-14T15:23:46.525Z,100806.47
2019-01-14T15:26:16.091Z,100814.13
2019-01-14T15:28:47.721Z,100821.09
2019-01-14T15:31:17.297Z,100826.64
2019-01-14T15:33:46.928Z,100832.67
2019-01-14T15:36:16.744Z,100832.94
2019-01-14T15:38:46.292Z,100839.91
2019-01-14T15:41:18.548Z,100852.95
2019-01-14T15:43:48.073Z,100839.95
2019-01-14T15:46:17.618Z,100852.12
2019-01-14T15:48:48.023Z,100851.81
2019-01-14T15:51:18.020Z,100869.55
2019-01-14T15:53:47.901Z,100857.52
2019-01-14T15:56:17.415Z,100852.41
2019-01-14T15:58:46.941Z,100858.92
2019-01-14T16:01:16.494Z,100863.61
2019-01-14T16:03:46.051Z,100875.69
2019-01-14T16:06:15.569Z,100879.57
2019-01-14T16:08:45.125Z,100878.61
2019-01-14T16:11:16.483Z,100880.43
2019-01-14T16:13:46.139Z,100880.48
2019-01-14T16:16:15.670Z,100887.33
2019-01-14T16:18:45.233Z,100884.31
2019-01-14T16:21:15.103Z,100884.30
2019-01-14T16:23:44.643Z,100885.65
2019-01-14T16:26:14.193Z,100896.34
2019-01-14T16:28:43.715Z,100892.12
2019-01-14T16:31:14.174Z,100898.20
2019-01-14T16:33:43.697Z,100904.09
2019-01-14T16:36:13.263Z,100907.45
2019-01-14T16:38:44.419Z,100903.56
2019-01-14T16:41:15.598Z,100908.36
2019-01-14T16:43:45.189Z,100909.17
2019-01-14T16:46:14.725Z,100916.83
2019-01-14T16:48:44.271Z,100912.53
2019-01-14T16:51:13.890Z,100909.06
2019-01-14T16:53:43.425Z,100917.32
2019-01-14T16:56:12.945Z,100922.59
2019-01-14T16:58:42.971Z,100935.48
2019-01-14T17:01:12.449Z,100935.96
2019-01-14T17:03:41.993Z,100932.98
2019-01-14T17:06:12.175Z,100942.00
2019-01-14T17:08:41.752Z,100941.58
2019-01-14T17:11:11.300Z,100938.13
2019-01-14T17:13:40.901Z,100943.25
2019-01-14T17:16:10.396Z,100947.62
2019-01-14T17:18:39.924Z,100956.75
2019-01-14T17:21:09.799Z,100965.52
2019-01-14T17:23:39.359Z,100967.34
2019-01-14T17:26:08.906Z,100957.86
2019-01-14T17:28:38.444Z,100966.34
2019-01-14T17:31:07.979Z,100964.18
2019-01-14T17:33:37.515Z,100973.58
2019-01-14T17:36:07.072Z,100974.06
2019-01-14T17:38:36.947Z,100978.84
2019-01-14T17:41:06.483Z,100984.37
2019-01-14T17:43:36.043Z,100986.88
2019-01-14T17:46:05.828Z,100987.30
2019-01-14T17:48:35.365Z,100992.09
2019-01-14T17:51:04.899Z,100985.50
2019-01-14T17:53:34.438Z,100995.80
2019-01-14T17:56:03.987Z,100995.76
2019-01-14T17:58:33.794Z,101003.98
2019-01-14T18:01:03.338Z,101005.59
2019-01-14T18:03:32.880Z,101013.77
2019-01-14T18:06:02.679Z,101019.17
2019-01-14T18:08:32.270Z,101023.48
2019-01-14T18:11:02.079Z,101017.36
2019-01-14T18:13:31.585Z,101020.45
2019-01-14T18:16:01.214Z,101027.88
2019-01-14T18:18:31.055Z,101032.19
2019-01-14T18:21:05.466Z,101032.70
2019-01-14T18:23:32.932Z,101030.85
2019-01-14T18:26:02.424Z,101038.30
2019-01-14T18:28:31.974Z,101047.86
2019-01-14T18:31:01.519Z,101048.77
2019-01-14T18:33:31.068Z,101054.91
2019-01-14T18:36:00.675Z,101067.84
2019-01-14T18:38:30.227Z,101067.92
2019-01-14T18:40:59.783Z,101074.73
2019-01-14T18:43:29.332Z,101074.77
2019-01-14T18:45:58.865Z,101071.25
2019-01-14T18:48:28.397Z,101078.51
2019-01-14T18:50:57.971Z,101088.45
2019-01-14T18:53:27.527Z,101095.31
2019-01-14T18:55:57.069Z,101098.01
2019-01-14T18:58:26.647Z,101096.64
2019-01-14T19:00:56.269Z,101099.59
2019-01-14T19:03:25.808Z,101104.25
2019-01-14T19:05:55.345Z,101098.61
2019-01-14T19:08:24.893Z,101105.98
2019-01-14T19:10:54.791Z,101111.26
2019-01-14T19:13:24.273Z,101111.30
2019-01-14T19:15:53.836Z,101121.71
2019-01-14T19:18:23.631Z,101117.40
2019-01-14T19:20:53.203Z,101119.13
2019-01-14T19:23:23.195Z,101122.61
2019-01-14T19:25:52.756Z,101119.92
2019-01-14T19:28:22.284Z,101124.59
2019-01-14T19:30:51.832Z,101130.66
2019-01-14T19:33:21.397Z,101128.47
2019-01-14T19:35:51.255Z,101128.53
2019-01-14T19:38:20.738Z,101128.10
2019-01-14T19:40:50.269Z,101135.47
2019-01-14T19:43:19.827Z,101126.42
2019-01-14T19:45:49.911Z,101133.34
2019-01-14T19:48:19.859Z,101138.91
2019-01-14T19:50:49.405Z,101135.94
2019-01-14T19:53:18.976Z,101143.69
2019-01-14T19:55:48.483Z,101144.95
2019-01-14T19:58:18.016Z,101145.70
2019-01-14T20:00:48.133Z,101148.36
2019-01-14T20:03:18.278Z,101153.90
2019-01-14T20:05:47.858Z,101155.19
2019-01-14T20:08:19.038Z,101150.81
2019-01-14T20:10:50.994Z,101144.77
2019-01-14T20:13:20.522Z,101148.19
2019-01-14T20:15:50.050Z,101157.67
2019-01-14T20:18:22.483Z,101157.20
2019-01-14T20:20:52.053Z,101159.03
2019-01-14T20:23:22.746Z,101155.55
2019-01-14T20:25:52.280Z,101163.34
2019-01-14T20:28:21.821Z,101164.20
2019-01-14T20:30:54.222Z,101169.31
2019-01-14T20:33:32.642Z,101169.31
2019-01-14T20:36:02.209Z,101183.57
2019-01-14T20:38:32.268Z,101182.24
2019-01-14T20:41:01.763Z,101169.74
2019-01-14T20:43:31.314Z,101183.97
2019-01-14T20:46:01.409Z,101185.66
2019-01-14T20:48:32.700Z,101177.97
2019-01-14T20:51:02.332Z,101186.55
2019-01-14T20:53:32.134Z,101184.89
2019-01-14T20:56:01.693Z,101186.66
2019-01-14T20:58:31.317Z,101197.86
2019-01-14T21:01:00.862Z,101191.77
2019-01-14T21:03:30.434Z,101192.63
2019-01-14T21:05:59.958Z,101190.03
2019-01-14T21:08:29.567Z,101196.14
2019-01-14T21:10:59.120Z,101198.23
2019-01-14T21:13:28.643Z,101201.31
2019-01-14T21:16:02.803Z,101196.97
2019-01-14T21:18:29.467Z,101190.50
2019-01-14T21:20:59.005Z,101195.67
2019-01-14T21:23:28.579Z,101195.64
2019-01-14T21:25:58.420Z,101198.33
2019-01-14T21:28:27.975Z,101191.66
2019-01-14T21:30:57.529Z,101201.07
2019-01-14T21:33:27.107Z,101196.85
2019-01-14T21:35:56.726Z,101192.08
2019-01-14T21:38:26.265Z,101192.11
2019-01-14T21:40:56.091Z,101194.33
2019-01-14T21:43:25.588Z,101191.28
2019-01-14T21:45:55.224Z,101197.48
2019-01-14T21:48:24.789Z,101198.75
2019-01-14T21:50:54.341Z,101202.14
2019-01-14T21:53:23.875Z,101200.88
2019-01-14T21:55:53.419Z,101201.67
2019-01-14T21:58:22.975Z,101204.34
2019-01-14T22:00:52.535Z,101192.26
2019-01-14T22:03:22.064Z,101203.06
2019-01-14T22:05:52.074Z,101204.40
2019-01-14T22:08:21.607Z,101209.27
2019-01-14T22:10:51.176Z,101205.80
2019-01-14T22:13:20.735Z,101208.79
2019-01-14T22:15:51.192Z,101210.91
2019-01-14T22:18:20.720Z,101210.48
2019-01-14T22:20:50.444Z,101212.64
2019-01-14T22:23:19.992Z,101205.40
2019-01-14T22:25:49.567Z,101206.23
2019-01-14T22:28:21.236Z,101205.84
2019-01-14T22:30:50.750Z,101210.99
2019-01-14T22:33:21.227Z,101211.52
2019-01-14T22:35:51.783Z,101207.70
2019-01-14T22:38:21.321Z,101215.47
2019-01-14T22:40:53.909Z,101215.85
2019-01-14T22:43:23.431Z,101214.56
2019-01-14T22:45:52.990Z,101215.02
2019-01-14T22:48:22.522Z,101221.47
2019-01-14T22:50:52.071Z,101215.88
2019-01-14T22:53:21.615Z,101227.11
2019-01-14T22:55:51.157Z,101221.09
2019-01-14T22:58:20.726Z,101224.48
2019-01-14T23:00:57.094Z,101228.81
2019-01-14T23:03:26.717Z,101235.67
2019-01-14T23:05:56.262Z,101240.41
2019-01-14T23:08:25.818Z,101239.55
2019-01-14T23:10:55.373Z,101229.67
2019-01-14T23:13:24.881Z,101232.28
2019-01-14T23:15:54.541Z,101227.95
2019-01-14T23:18:24.080Z,101226.70
2019-01-14T23:20:53.643Z,101230.97
2019-01-14T23:23:23.405Z,101228.80
2019-01-14T23:25:53.208Z,101223.15
2019-01-14T23:28:22.750Z,101217.15
2019-01-14T23:30:52.303Z,101215.45
2019-01-14T23:33:21.827Z,101216.73
2019-01-14T23:35:51.375Z,101223.58
2019-01-14T23:38:20.905Z,101221.43
2019-01-14T23:40:50.438Z,101220.11
2019-01-14T23:43:19.974Z,101220.25
2019-01-14T23:45:49.596Z,101224.98
2019-01-14T23:48:19.155Z,101222.35
2019-01-14T23:50:48.671Z,101225.02
2019-01-14T23:53:18.223Z,101227.11
2019-01-14T23:55:47.784Z,101231.91
2019-01-14T23:58:17.307Z,101228.02
